Slots 777

Canivete
Data Hora VISIB (KM) Cobertura(OITAVOS) DD Vento(º) Intensidade (NÓS) TEMP DO AR (º) Temp do Ponto de Orvalho(ºC) Pressão (hPa) TEMP MAX (ºC) TEMP MIN (ºC)
08/07/2021 18:00 4/10 6 28.00 24.00 1010.30
07/07/2021 18:00 4/10 6 29.00 26.00 1009.10
07/07/2021 12:00 2/4 8 26.00 23.30 1013.50
07/07/2021 00:00 0,5/1 4 24.00 22.60 1013.90
06/07/2021 00:00 0,5/1 6 25.00 23.60 1015.90
05/07/2021 18:00 0,2/0,5 8 26.00 23.30 1014.60
05/07/2021 12:00 1/2 8 26.00 23.30 1015.70
05/07/2021 00:00 0,2/0,5 26.00 23.30 1015.70
04/07/2021 18:00 2/4 8 26.50 22.90 1012.50
04/07/2021 12:00 1/2 8 25.50 21.80 1014.60
04/07/2021 00:00 0,2 25.00 22.20 1014.90
03/07/2021 18:00 0,2 8 26.50 22.90 1014.40
03/07/2021 00:00 0,05/0,2 25.50 21.80 1014.60
02/07/2021 18:00 0,05/0,2 8 27.50 22.50 1012.50
02/07/2021 00:00 0,2/0,5 26.00 21.80 1013.50
01/07/2021 00:00 0,2/0,5 25.00 22.20 1013.80
30/06/2021 18:00 0,05/0,2 8 25.50 21.80 1010.60
30/06/2021 12:00 4/10 1 27.00 22.90 1013.40
30/06/2021 00:00 0,2/0,5 2 25.50 21.80 1013.50
29/06/2021 18:00 4/10 6 31.00 25.70 1010.90
29/06/2021 12:00 4/10 1 27.00 22.90 1014.40
27/06/2021 18:00 4/10 4 30.00 24.70 1008.90
27/06/2021 18:00 4/10 4 30.00 24.70 1008.90
27/06/2021 00:00 2/4 2 27.50 24.00 1011.50
26/06/2021 18:00 4/10 1 30.00 24.70 1009.00
26/06/2021 12:00 4/10 6 27.00 22.90 1012.50
26/06/2021 00:00 94 4 27.00 22.50 1012.30
25/06/2021 18:00 96 7 28.00 24.00 1010.30
25/06/2021 00:00 1/2 5 26.00 21.80 1012.60
24/06/2021 18:00 4/10 26.00 21.80 1010.60
24/06/2021 12:00 4/10 2 27.00 22.90 1013.40
24/06/2021 00:00 4/10 2 27.00 22.90 1013.40
23/06/2021 18:00 4/10 1 30.00 24.70 1009.90
23/06/2021 12:00 4/10 2 27.00 22.90 1013.40
22/06/2021 12:00 4/10 7 30.00 24.70 1011.00
22/06/2021 12:00 4/10 1 27.00 22.90 1013.40
21/06/2021 12:00 4/10 7 26.50 22.90 1013.40
21/06/2021 00:00 0,5/1 27.00 22.90 1014.40
20/06/2021 18:00 4/10 6 30.00 26.10 1011.00
20/06/2021 12:00 4/10 2 27.50 24.00 1014.30
20/06/2021 00:00 0,5/1 26.50 22.90 1014.40
20/06/2021 00:00 0,5/1 26.50 22.90 1014.40
19/06/2021 18:00 4/10 4 30.00 24.70 1012.90
19/06/2021 12:00 4/10 6 27.50 24.00 1014.30
18/06/2021 18:00 4/10 2 29.50 24.70 1011.00
18/06/2021 06:00 0,5/1 4 27.00 24.30 1012.50
17/06/2021 18:00 4/10 7 30.00 26.10 1008.90
17/06/2021 12:00 4/10 2 27.50 25.30 1013.20
17/06/2021 12:00 4/10 2 27.50 25.30 1013.20
17/06/2021 00:00 0,5/1 2 27.00 12.50 1012.60
16/06/2021 18:00 4/10 3 30.00 26.10 1008.90
16/06/2021 12:00 4/10 2 27.50 25.70 1012.30
16/06/2021 00:00 0,2/0,5 7 26.00 23.30 1012.60
15/06/2021 18:00 1/2 8 28.00 25.50 1010.30
05/06/2021 18:00 4/10 4 30.00 27.40 1008.90
05/06/2021 12:00 4/10 6 27.00 24.30 1011.50
05/06/2021 00:00 1/2 26.00 23.30 1011.70
04/06/2021 18:00 2/4 7 28.00 25.30 1010.30
04/06/2021 12:00 4/10 7 26.00 24.70 1012.60
04/06/2021 00:00 0,5/1 8 25.00 23.60 1011.90
03/06/2021 18:00 2/4 6 29.00 26.70 1009.10
03/06/2021 12:00 2/4 6 27.00 25.70 1010.50
03/06/2021 00:00 1/2 2 27.00 24.70 1011.50
02/06/2021 18:00 4/10 6 30.00 27.40 1008.90
02/06/2021 12:00 0,2/0,5 6 27.00 25.70 1010.40
01/06/2021 18:00 2/4 8 26.00 24.70 1009.50
01/06/2021 00:00 1/2 4 26.00 23.30 1011.70
31/05/2021 18:00 1/2 8 27.00 25.70 1011.50
31/05/2021 12:00 2/4 7 26.00 24.70 1012.60
31/05/2021 00:00 4/10 4 26.00 24.70 1010.60
30/05/2021 18:00 0/0,05 7 29.00 27.70 1009.10
30/05/2021 12:00 2/4 5 27.00 25.70 1012.50
30/05/2021 00:00 4/10 2 25.00 23.60 1011.90
29/05/2021 18:00 0/0,05 8 26.00 24.70 1009.50
29/05/2021 00:00 0,1 8 25.00 23.60 1011.90
28/05/2021 18:00 0,2/0,5 8 26.00 24.70 1009.50
28/05/2021 12:00 2/4 7 26.00 24.70 1012.60
28/05/2021 00:00 0,2/0,5 7 25.00 23.60 1011.90
28/05/2021 18:00 2/4 7 29.00 27.70 1009.10
27/05/2021 12:00 2/4 8 26.00 24.70 1011.70
27/05/2021 00:00 4/10 8 26.00 24.70 1010.60
26/05/2021 18:00 2/4 7 29.00 27.70 1009.10
26/05/2021 12:00 2/4 8 26.00 24.70 1011.70
26/05/2021 00:00 1/2 4 26.00 24.70 1009.50
25/05/2021 18:00 4/10 5 28.00 26.70 1008.20
25/05/2021 12:00 2/4 7 27.00 25.70 1010.40
25/05/2021 00:00 0/0,05 26.00 24.70 1009.50
24/05/2021 18:00 4/10 7 28.00 26.70 1008.30
24/05/2021 12:00 4/10 4 26.00 26.70 1010.40
24/05/2021 00:00 0/0,05 26.00 24.70 1009.50
24/05/2021 00:00 0/0,05 26.00 24.70 1009.50
23/05/2021 18:00 4/10 7 28.00 26.70 1008.30
23/05/2021 12:00 0,2/0,5 8 25.00 1010.90
23/05/2021 00:00 0,1 2 27.00 25.70 1009.40
22/05/2021 18:00 4/10 8 28.00 26.70 1008.30
22/05/2021 12:00 4/10 6 26.50 25.70 1009.40
22/05/2021 00:00 0,2/0,5 27.00 25.70 1009.40
21/05/2021 12:00 4/10 6 26.50 25.70 1008.50
21/05/2021 00:00 0,1 27.50 24.00 1006.20
20/05/2021 18:00 2/4 8 28.50 25.00 1006.20
Slots 777 Mapa do site